createdAt,value
2019-05-19T00:00:26.538Z,15.50
2019-05-19T00:04:35.138Z,15.50
2019-05-19T00:08:43.785Z,15.40
2019-05-19T00:12:52.430Z,15.40
2019-05-19T00:17:01.106Z,15.40
2019-05-19T00:21:10.073Z,15.50
2019-05-19T00:25:18.695Z,15.50
2019-05-19T00:29:27.321Z,15.60
2019-05-19T00:33:35.954Z,15.60
2019-05-19T00:37:44.608Z,15.60
2019-05-19T00:41:53.236Z,15.50
2019-05-19T00:46:01.890Z,15.30
2019-05-19T00:50:11.402Z,15.20
2019-05-19T00:54:19.979Z,15.20
2019-05-19T00:58:29.271Z,15.30
2019-05-19T01:02:38.215Z,15.20
2019-05-19T01:06:46.905Z,15.20
2019-05-19T01:10:55.530Z,15.20
2019-05-19T01:15:05.902Z,15.30
2019-05-19T01:19:14.561Z,15.30
2019-05-19T01:23:23.199Z,15.30
2019-05-19T01:27:31.826Z,15.30
2019-05-19T01:31:40.627Z,15.20
2019-05-19T01:35:49.588Z,15.20
2019-05-19T01:39:58.239Z,15.10
2019-05-19T01:44:07.349Z,15.10
2019-05-19T01:48:15.917Z,15.00
2019-05-19T01:52:24.913Z,15.00
2019-05-19T01:56:33.546Z,15.00
2019-05-19T02:00:42.477Z,14.90
2019-05-19T02:04:51.090Z,14.90
2019-05-19T02:08:59.796Z,14.90
2019-05-19T02:13:08.485Z,14.80
2019-05-19T02:17:17.146Z,14.70
2019-05-19T02:21:26.046Z,14.70
2019-05-19T02:25:34.716Z,14.60
2019-05-19T02:29:43.332Z,14.60
2019-05-19T02:33:51.929Z,14.60
2019-05-19T02:38:00.868Z,14.50
2019-05-19T02:42:10.623Z,14.50
2019-05-19T02:46:20.271Z,14.50
2019-05-19T02:50:31.735Z,14.50
2019-05-19T02:54:40.534Z,14.40
2019-05-19T02:58:50.071Z,14.40
2019-05-19T03:02:58.670Z,14.40
2019-05-19T03:07:07.352Z,14.40
2019-05-19T03:11:15.926Z,14.40
2019-05-19T03:15:24.554Z,14.40
2019-05-19T03:19:33.181Z,14.30
2019-05-19T03:23:41.780Z,14.30
2019-05-19T03:27:50.444Z,14.20
2019-05-19T03:32:00.674Z,14.20
2019-05-19T03:36:09.679Z,14.10
2019-05-19T03:40:21.187Z,14.10
2019-05-19T03:44:29.800Z,14.10
2019-05-19T03:48:38.426Z,14.20
2019-05-19T03:52:47.029Z,14.20
2019-05-19T03:56:55.686Z,14.10
2019-05-19T04:01:04.370Z,14.20
2019-05-19T04:05:13.339Z,14.20
2019-05-19T04:09:22.006Z,14.20
2019-05-19T04:13:30.656Z,14.10
2019-05-19T04:17:39.283Z,14.10
2019-05-19T04:21:49.555Z,14.10
2019-05-19T04:25:58.195Z,14.20
2019-05-19T04:30:08.665Z,14.20
2019-05-19T04:34:17.246Z,14.20
2019-05-19T04:38:26.282Z,14.30
2019-05-19T04:42:34.929Z,14.30
2019-05-19T04:46:43.526Z,14.30
2019-05-19T04:50:52.148Z,14.40
2019-05-19T04:55:00.809Z,14.40
2019-05-19T04:59:09.440Z,14.50
2019-05-19T05:03:18.032Z,14.50
2019-05-19T05:07:26.649Z,14.60
2019-05-19T05:11:35.281Z,14.50
2019-05-19T05:15:43.967Z,14.50
2019-05-19T05:19:52.577Z,14.60
2019-05-19T05:24:20.508Z,14.60
2019-05-19T05:28:29.131Z,14.60
2019-05-19T05:32:37.759Z,14.60
2019-05-19T05:36:46.412Z,14.70
2019-05-19T05:40:55.017Z,14.80
2019-05-19T05:45:07.199Z,14.80
2019-05-19T05:49:35.142Z,14.80
2019-05-19T05:53:43.761Z,14.80
2019-05-19T05:57:52.371Z,14.80
2019-05-19T06:02:01.065Z,14.90
2019-05-19T06:06:09.682Z,14.90
2019-05-19T06:10:18.602Z,15.00
2019-05-19T06:14:27.225Z,15.00
2019-05-19T06:18:35.858Z,15.00
2019-05-19T06:22:55.839Z,15.10
2019-05-19T06:26:54.894Z,15.20
2019-05-19T06:31:03.510Z,15.30
2019-05-19T06:35:12.573Z,15.30
2019-05-19T06:39:21.148Z,15.40
2019-05-19T06:43:29.829Z,15.50
2019-05-19T06:47:38.734Z,15.60
2019-05-19T06:51:47.359Z,15.70
2019-05-19T06:55:56.013Z,15.80
2019-05-19T07:00:06.724Z,15.90
2019-05-19T07:04:15.315Z,15.90
2019-05-19T07:08:23.926Z,16.10
2019-05-19T07:12:32.578Z,16.20
2019-05-19T07:16:41.175Z,16.30
2019-05-19T07:21:09.215Z,16.50
2019-05-19T07:25:17.854Z,16.70
2019-05-19T07:29:26.463Z,16.90
2019-05-19T07:33:35.164Z,17.10
2019-05-19T07:37:43.797Z,17.20
2019-05-19T07:42:11.770Z,17.20
2019-05-19T07:46:23.671Z,17.30
2019-05-19T07:50:37.934Z,17.40
2019-05-19T07:54:45.520Z,17.40
2019-05-19T07:58:54.147Z,17.50
2019-05-19T08:03:02.839Z,17.60
2019-05-19T08:07:11.425Z,17.70
2019-05-19T08:11:20.077Z,17.80
2019-05-19T08:15:28.662Z,18.00
2019-05-19T08:19:37.272Z,18.10
2019-05-19T08:23:59.163Z,18.10
2019-05-19T08:28:07.591Z,18.20
2019-05-19T08:32:12.040Z,18.20
2019-05-19T08:36:20.704Z,18.30
2019-05-19T08:40:29.413Z,18.40
2019-05-19T08:44:38.022Z,18.50
2019-05-19T08:48:46.642Z,18.70
2019-05-19T08:52:55.605Z,18.90
2019-05-19T08:57:04.205Z,19.00
2019-05-19T09:01:16.124Z,19.20
2019-05-19T09:05:27.746Z,19.30
2019-05-19T09:09:36.437Z,19.30
2019-05-19T09:13:45.195Z,19.30
2019-05-19T09:17:54.304Z,19.30
2019-05-19T09:22:02.982Z,19.30
2019-05-19T09:26:11.898Z,19.30
2019-05-19T09:30:20.836Z,19.30
2019-05-19T09:34:29.627Z,19.40
2019-05-19T09:38:38.524Z,19.40
2019-05-19T09:42:47.236Z,19.60
2019-05-19T09:46:56.075Z,19.70
2019-05-19T09:51:04.919Z,19.90
2019-05-19T09:55:13.809Z,20.10
2019-05-19T09:59:23.003Z,20.30
2019-05-19T10:03:31.824Z,20.50
2019-05-19T10:07:40.662Z,20.80
2019-05-19T10:11:55.555Z,21.00
2019-05-19T10:16:04.477Z,21.30
2019-05-19T10:20:14.156Z,21.60
2019-05-19T10:24:22.948Z,22.00
2019-05-19T10:28:31.873Z,22.10
2019-05-19T10:32:40.691Z,22.20
2019-05-19T10:36:49.524Z,22.30
2019-05-19T10:40:58.251Z,22.50
2019-05-19T10:45:11.782Z,22.90
2019-05-19T10:49:20.437Z,23.30
2019-05-19T10:53:29.285Z,23.60
2019-05-19T10:57:37.943Z,23.70
2019-05-19T11:01:46.559Z,23.80
2019-05-19T11:05:55.207Z,23.80
2019-05-19T11:10:05.225Z,23.70
2019-05-19T11:14:13.847Z,23.80
2019-05-19T11:18:22.536Z,24.00
2019-05-19T11:22:33.965Z,24.10
2019-05-19T11:26:42.601Z,24.30
2019-05-19T11:30:51.276Z,24.20
2019-05-19T11:34:59.866Z,24.10
2019-05-19T11:39:08.940Z,24.40
2019-05-19T11:43:17.562Z,24.40
2019-05-19T11:47:26.140Z,24.00
2019-05-19T11:51:35.089Z,24.00
2019-05-19T11:55:43.737Z,24.10
2019-05-19T11:59:52.337Z,24.10
2019-05-19T12:04:00.960Z,23.90
2019-05-19T12:08:09.651Z,23.90
2019-05-19T12:12:18.303Z,24.00
2019-05-19T12:16:26.909Z,24.00
2019-05-19T12:20:35.542Z,24.10
2019-05-19T12:24:44.210Z,24.20
2019-05-19T12:28:52.966Z,24.10
2019-05-19T12:33:01.716Z,24.10
2019-05-19T12:37:10.660Z,24.10
2019-05-19T12:41:19.311Z,24.00
2019-05-19T12:45:28.014Z,24.00
2019-05-19T12:49:36.637Z,23.80
2019-05-19T12:53:45.285Z,23.80
2019-05-19T12:57:53.885Z,23.90
2019-05-19T13:02:02.497Z,23.80
2019-05-19T13:06:11.194Z,23.60
2019-05-19T13:10:19.820Z,23.40
2019-05-19T13:14:28.416Z,23.30
2019-05-19T13:18:40.837Z,23.40
2019-05-19T13:22:49.456Z,23.70
2019-05-19T13:26:58.092Z,24.00
2019-05-19T13:31:06.930Z,24.40
2019-05-19T13:35:16.052Z,24.70
2019-05-19T13:39:25.004Z,24.80
2019-05-19T13:43:33.682Z,24.90
2019-05-19T13:47:42.356Z,24.90
2019-05-19T13:51:50.925Z,24.70
2019-05-19T13:55:59.530Z,24.70
2019-05-19T14:00:08.972Z,24.70
2019-05-19T14:04:17.609Z,24.70
2019-05-19T14:08:26.230Z,24.70
2019-05-19T14:12:34.871Z,24.80
2019-05-19T14:16:43.451Z,24.80
2019-05-19T14:20:52.392Z,24.80
2019-05-19T14:25:01.002Z,24.80
2019-05-19T14:29:09.629Z,24.80
2019-05-19T14:33:18.250Z,24.80
2019-05-19T14:37:26.872Z,24.70
2019-05-19T14:41:37.513Z,24.60
2019-05-19T14:45:49.219Z,24.40
2019-05-19T14:49:58.005Z,24.30
2019-05-19T14:54:06.643Z,24.10
2019-05-19T14:58:15.305Z,23.70
2019-05-19T15:02:23.914Z,23.30
2019-05-19T15:06:32.565Z,22.90
2019-05-19T15:10:41.198Z,22.50
2019-05-19T15:14:50.183Z,22.40
2019-05-19T15:18:58.816Z,22.60
2019-05-19T15:23:07.955Z,22.90
2019-05-19T15:27:16.585Z,23.20
2019-05-19T15:31:25.223Z,23.60
2019-05-19T15:35:33.806Z,24.00
2019-05-19T15:39:42.435Z,24.10
2019-05-19T15:43:51.105Z,24.20
2019-05-19T15:47:59.730Z,24.20
2019-05-19T15:52:08.386Z,24.10
2019-05-19T15:56:16.984Z,23.80
2019-05-19T16:00:25.582Z,23.20
2019-05-19T16:04:34.188Z,22.60
2019-05-19T16:08:42.824Z,22.00
2019-05-19T16:12:51.459Z,21.60
2019-05-19T16:17:00.327Z,21.10
2019-05-19T16:21:08.973Z,20.90
2019-05-19T16:25:23.728Z,20.60
2019-05-19T16:29:32.303Z,20.50
2019-05-19T16:33:40.922Z,20.40
2019-05-19T16:37:49.904Z,20.30
2019-05-19T16:41:58.570Z,20.20
2019-05-19T16:46:07.167Z,20.10
2019-05-19T16:50:16.318Z,20.10
2019-05-19T16:54:26.589Z,20.00
2019-05-19T16:58:44.884Z,19.90
2019-05-19T17:02:45.550Z,19.90
2019-05-19T17:06:54.083Z,19.80
2019-05-19T17:11:16.352Z,19.90
2019-05-19T17:15:13.307Z,20.00
2019-05-19T17:19:21.934Z,20.00
2019-05-19T17:23:33.485Z,19.90
2019-05-19T17:27:42.169Z,19.80
2019-05-19T17:31:54.483Z,19.40
2019-05-19T17:36:01.061Z,19.30
2019-05-19T17:40:10.389Z,19.20
2019-05-19T17:44:19.049Z,18.90
2019-05-19T17:48:27.670Z,18.70
2019-05-19T17:52:36.322Z,18.50
2019-05-19T17:56:47.866Z,18.40
2019-05-19T18:00:56.487Z,18.30
2019-05-19T18:05:05.914Z,18.20
2019-05-19T18:09:14.493Z,18.10
2019-05-19T18:13:23.178Z,18.00
2019-05-19T18:17:31.784Z,18.00
2019-05-19T18:21:40.481Z,17.90
2019-05-19T18:25:49.074Z,17.80
2019-05-19T18:29:57.722Z,17.60
2019-05-19T18:34:06.397Z,17.60
2019-05-19T18:38:15.002Z,17.50
2019-05-19T18:42:23.647Z,17.60
2019-05-19T18:46:32.201Z,17.50
2019-05-19T18:50:41.133Z,17.40
2019-05-19T18:54:50.525Z,17.40
2019-05-19T18:58:59.262Z,17.30
2019-05-19T19:03:08.027Z,17.20
2019-05-19T19:07:16.648Z,17.10
2019-05-19T19:11:25.274Z,17.00
2019-05-19T19:15:33.871Z,17.00
2019-05-19T19:19:42.505Z,17.00
2019-05-19T19:23:51.125Z,16.90
2019-05-19T19:27:59.708Z,16.90
2019-05-19T19:32:11.389Z,16.90
2019-05-19T19:36:20.016Z,16.90
2019-05-19T19:40:30.271Z,16.70
2019-05-19T19:44:38.991Z,16.70
2019-05-19T19:48:48.844Z,16.70
2019-05-19T19:52:57.485Z,16.60
2019-05-19T19:57:06.153Z,16.60
2019-05-19T20:01:14.778Z,16.60
2019-05-19T20:05:23.435Z,16.50
2019-05-19T20:09:32.046Z,16.60
2019-05-19T20:13:40.667Z,16.60
2019-05-19T20:17:49.306Z,16.60
2019-05-19T20:21:57.922Z,16.60
2019-05-19T20:26:06.512Z,16.60
2019-05-19T20:30:15.343Z,16.40
2019-05-19T20:34:23.987Z,16.30
2019-05-19T20:38:32.647Z,16.30
2019-05-19T20:42:41.260Z,16.40
2019-05-19T20:46:49.887Z,16.40
2019-05-19T20:50:58.508Z,16.40
2019-05-19T20:55:08.073Z,16.30
2019-05-19T20:59:16.857Z,16.30
2019-05-19T21:03:25.417Z,16.20
2019-05-19T21:07:34.141Z,16.10
2019-05-19T21:11:42.724Z,16.10
2019-05-19T21:15:51.352Z,16.10
2019-05-19T21:19:59.979Z,16.10
2019-05-19T21:24:08.600Z,16.10
2019-05-19T21:28:17.221Z,16.00
2019-05-19T21:32:26.267Z,15.80
2019-05-19T21:36:34.957Z,15.80
2019-05-19T21:40:43.610Z,15.80
2019-05-19T21:45:11.749Z,15.80
2019-05-19T21:49:20.366Z,15.80
2019-05-19T21:53:29.029Z,15.80
2019-05-19T21:57:38.100Z,15.80
2019-05-19T22:01:46.938Z,15.60
2019-05-19T22:05:55.565Z,15.50
2019-05-19T22:10:05.781Z,15.40
2019-05-19T22:14:14.714Z,15.40
2019-05-19T22:18:23.403Z,15.20
2019-05-19T22:22:32.079Z,15.20
2019-05-19T22:26:40.655Z,15.10
2019-05-19T22:30:49.310Z,15.10
2019-05-19T22:34:57.964Z,15.00
2019-05-19T22:39:07.586Z,15.00
2019-05-19T22:43:16.193Z,14.90
2019-05-19T22:47:24.815Z,14.90
2019-05-19T22:51:33.442Z,14.80
2019-05-19T22:55:42.088Z,14.60
2019-05-19T22:59:50.704Z,14.60
2019-05-19T23:03:59.336Z,14.70
2019-05-19T23:08:07.964Z,14.70
2019-05-19T23:12:41.946Z,14.70
2019-05-19T23:17:30.654Z,14.70
2019-05-19T23:21:27.966Z,14.60
2019-05-19T23:25:36.597Z,14.60
2019-05-19T23:29:45.177Z,14.50
2019-05-19T23:33:54.221Z,14.50
2019-05-19T23:38:02.818Z,14.40
2019-05-19T23:42:11.423Z,14.40
2019-05-19T23:46:20.507Z,14.30
2019-05-19T23:50:31.211Z,14.10
2019-05-19T23:54:39.940Z,14.00
2019-05-19T23:58:48.518Z,13.90
